Time;durP1;ratioP1;P1;durP2;ratioP2;P2;SDS_P1;SDS_P2;PMS_P1;PMS_P2;Temp;Humidity;BMP_temperature;BMP_pressure;BME280_temperature;BME280_humidity;BME280_pressure;Samples;Min_cycle;Max_cycle;Signal;HPM_P1;HPM_P2
2021/11/16 00:01:45;;;;;;;67.72;42.67;;;6.80;83.80;;;4.76;98.65;96377.81;4971076;28;20043;-69
2021/11/16 00:04:11;;;;;;;69.35;38.15;;;6.90;83.70;;;4.78;97.71;96376.72;4954039;28;20046;-68
2021/11/16 00:06:37;;;;;;;68.88;39.20;;;6.80;83.50;;;4.80;97.92;96377.38;4963409;28;20035;-68
2021/11/16 00:09:04;;;;;;;70.05;43.65;;;6.80;83.40;;;4.81;98.08;96371.19;4987093;28;20030;-69
2021/11/16 00:11:31;;;;;;;67.32;38.65;;;6.90;83.40;;;4.82;98.58;96387.66;4982429;28;20123;-68
2021/11/16 00:13:56;;;;;;;72.45;41.13;;;6.90;83.50;;;4.79;98.22;96374.91;4962836;28;20038;-68
2021/11/16 00:16:22;;;;;;;71.75;43.88;;;6.90;83.40;;;4.78;98.31;96387.13;4981303;28;20138;-67
2021/11/16 00:18:56;;;;;;;74.05;40.38;;;6.90;83.20;;;4.78;97.65;96381.91;4964644;28;20042;-68
2021/11/16 00:21:24;;;;;;;70.82;38.95;;;6.90;83.30;;;4.77;97.68;96380.28;4970856;28;20042;-68
2021/11/16 00:23:54;;;;;;;72.00;41.00;;;6.80;83.30;;;4.74;97.80;96380.53;4985652;28;20141;-69
2021/11/16 00:26:20;;;;;;;71.78;39.60;;;6.80;83.30;;;4.74;97.49;96371.91;4939925;28;20043;-69
2021/11/16 00:28:46;;;;;;;73.82;39.10;;;6.80;83.30;;;4.75;98.58;96371.78;4986851;28;20513;-69
2021/11/16 00:31:12;;;;;;;71.13;40.38;;;6.90;83.30;;;4.75;97.86;96369.19;4954727;28;20043;-69
2021/11/16 00:33:37;;;;;;;71.60;42.55;;;6.90;83.30;;;4.76;98.66;96378.66;4970537;28;20042;-69
2021/11/16 00:36:03;;;;;;;70.20;37.95;;;6.90;83.40;;;4.75;97.77;96365.72;4970169;28;20039;-69
2021/11/16 00:38:30;;;;;;;68.70;41.75;;;6.90;83.30;;;4.77;98.52;96375.06;4986811;28;20042;-70
2021/11/16 00:40:56;;;;;;;72.20;39.35;;;6.90;83.20;;;4.74;97.86;96370.13;4971616;28;20031;-70
2021/11/16 00:43:22;;;;;;;65.97;38.10;;;6.80;83.30;;;4.75;97.85;96371.78;4970458;28;20085;-70
2021/11/16 00:45:48;;;;;;;74.85;43.22;;;6.80;83.40;;;4.77;97.40;96374.25;4950006;28;20085;-70
2021/11/16 00:48:16;;;;;;;74.68;38.75;;;6.80;83.60;;;4.75;98.52;96371.78;4954830;28;20069;-70
2021/11/16 00:50:45;;;;;;;71.55;42.40;;;6.80;83.60;;;4.74;98.45;96375.34;4969455;28;20176;-70
2021/11/16 00:53:10;;;;;;;73.93;41.22;;;6.70;83.40;;;4.73;98.16;96373.69;4985711;28;20035;-70
2021/11/16 00:55:36;;;;;;;70.70;39.22;;;6.70;83.60;;;4.71;97.41;96359.19;4953437;28;20114;-70
2021/11/16 00:58:02;;;;;;;73.53;42.35;;;6.70;83.70;;;4.70;98.28;96358.34;4953829;28;20042;-70
2021/11/16 01:00:28;;;;;;;70.57;39.00;;;6.70;83.60;;;4.68;98.21;96362.91;4954081;28;20031;-70
2021/11/16 01:02:55;;;;;;;75.30;38.38;;;6.80;83.50;;;4.69;97.75;96368.94;4969295;28;20512;-70
2021/11/16 01:05:20;;;;;;;75.38;42.15;;;6.70;83.80;;;4.68;97.61;96369.91;4957349;28;20154;-70
2021/11/16 01:07:46;;;;;;;75.10;40.63;;;6.70;83.70;;;4.67;98.23;96366.47;4970602;28;20035;-70
2021/11/16 01:10:14;;;;;;;78.60;42.03;;;6.70;83.70;;;4.65;98.46;96357.97;4969722;28;20634;-70
2021/11/16 01:12:40;;;;;;;74.10;39.33;;;6.70;83.70;;;4.64;97.73;96364.16;4969101;28;20031;-70
2021/11/16 01:15:07;;;;;;;77.00;43.20;;;6.70;83.90;;;4.66;97.79;96367.44;4966202;28;20655;-70
2021/11/16 01:17:33;;;;;;;77.53;41.13;;;6.70;83.80;;;4.65;98.90;96371.00;4983103;28;20045;-70
2021/11/16 01:19:59;;;;;;;81.80;42.17;;;6.60;83.90;;;4.63;98.95;96364.31;4982539;28;20062;-70
2021/11/16 01:22:25;;;;;;;83.28;42.33;;;6.60;84.00;;;4.64;98.10;96374.59;4969717;28;20031;-70
2021/11/16 01:24:51;;;;;;;80.53;43.83;;;6.70;84.10;;;4.64;99.08;96374.59;4956981;28;20035;-70
2021/11/16 01:27:18;;;;;;;77.35;40.80;;;6.70;84.10;;;4.64;98.20;96379.78;4952099;28;20039;-70
2021/11/16 01:29:47;;;;;;;75.57;42.08;;;6.70;84.00;;;4.64;98.25;96364.16;4970208;28;20043;-70
2021/11/16 01:32:37;;;;;;;79.85;44.85;;;6.70;83.90;;;4.65;98.20;96371.00;4938227;28;20501;-70
2021/11/16 01:35:03;;;;;;;76.05;40.60;;;6.70;83.90;;;4.65;98.76;96368.41;4950913;28;20043;-70
2021/11/16 01:37:29;;;;;;;77.07;40.38;;;6.70;84.00;;;4.64;99.17;96369.38;4985876;28;20038;-71
2021/11/16 01:39:56;;;;;;;83.05;41.58;;;6.70;84.00;;;4.61;98.53;96369.66;4953762;28;20039;-70
2021/11/16 01:42:21;;;;;;;76.65;41.50;;;6.60;84.00;;;4.56;98.86;96372.72;4970891;28;20039;-70
2021/11/16 01:44:48;;;;;;;82.05;44.67;;;6.60;84.20;;;4.56;98.18;96366.69;4935732;28;20085;-71
2021/11/16 01:47:14;;;;;;;82.25;42.20;;;6.60;84.50;;;4.57;99.09;96373.53;4952813;28;20781;-69
2021/11/16 01:49:41;;;;;;;86.97;47.17;;;6.60;84.40;;;4.55;98.37;96368.47;4969878;28;20049;-68
2021/11/16 01:52:07;;;;;;;80.75;43.42;;;6.60;84.40;;;4.56;98.72;96361.47;4969144;28;20066;-69
2021/11/16 01:54:34;;;;;;;81.53;41.70;;;6.50;84.70;;;4.54;98.28;96360.81;4965743;28;20038;-69
2021/11/16 01:57:00;;;;;;;91.85;43.65;;;6.60;84.60;;;4.52;98.60;96362.69;4952465;28;20061;-69
2021/11/16 01:59:26;;;;;;;87.65;48.45;;;6.60;84.40;;;4.52;98.81;96358.31;4969312;28;20043;-68
2021/11/16 02:01:52;;;;;;;79.13;40.15;;;6.60;84.50;;;4.54;98.59;96358.19;4952617;28;20038;-69
2021/11/16 02:04:18;;;;;;;77.82;41.55;;;6.60;84.30;;;4.54;98.99;96369.44;4966211;28;20050;-68
2021/11/16 02:06:44;;;;;;;85.20;41.80;;;6.60;84.30;;;4.54;99.22;96373.81;4968853;28;20071;-69
2021/11/16 02:09:11;;;;;;;85.13;43.35;;;6.60;84.40;;;4.57;98.98;96363.13;4968735;28;20046;-69
2021/11/16 02:11:38;;;;;;;86.68;43.40;;;6.70;84.40;;;4.58;99.19;96362.16;4953263;28;20130;-69
2021/11/16 02:14:08;;;;;;;86.97;43.72;;;6.70;84.40;;;4.61;99.53;96374.88;4965427;28;20407;-68
2021/11/16 02:16:36;;;;;;;83.47;41.95;;;6.70;84.40;;;4.60;99.51;96371.44;4952176;28;20030;-69
2021/11/16 02:19:05;;;;;;;85.47;45.50;;;6.70;84.30;;;4.60;99.71;96371.44;4952813;28;20062;-69
2021/11/16 02:21:31;;;;;;;86.78;43.00;;;6.60;84.60;;;4.61;99.12;96369.66;4953200;28;20069;-69
2021/11/16 02:23:57;;;;;;;87.85;44.75;;;6.70;84.60;;;4.60;99.80;96365.44;4968427;28;20054;-69
2021/11/16 02:26:23;;;;;;;85.43;45.40;;;6.70;84.30;;;4.59;98.75;96366.38;4952371;28;20174;-69
2021/11/16 02:28:49;;;;;;;84.68;41.20;;;6.70;84.40;;;4.60;98.97;96363.63;4952940;28;20133;-69
2021/11/16 02:31:15;;;;;;;82.60;44.40;;;6.70;84.50;;;4.61;99.22;96364.47;4968048;28;20039;-69
2021/11/16 02:33:41;;;;;;;79.72;41.15;;;6.70;84.50;;;4.64;99.71;96363.34;4966852;28;20043;-69
2021/11/16 02:36:07;;;;;;;87.43;41.20;;;6.70;84.50;;;4.62;99.68;96360.88;4947769;28;20073;-69
2021/11/16 02:38:34;;;;;;;82.72;43.17;;;6.70;84.50;;;4.58;99.53;96364.75;4968381;28;20137;-69
2021/11/16 02:41:02;;;;;;;83.30;42.33;;;6.60;84.50;;;4.59;99.72;96355.97;4981440;28;20486;-69
2021/11/16 02:43:28;;;;;;;81.45;42.00;;;6.70;84.60;;;4.56;99.76;96361.47;4980761;28;20076;-69
2021/11/16 02:45:54;;;;;;;85.93;48.65;;;6.70;84.70;;;4.57;99.61;96352.69;4952067;28;20039;-70
2021/11/16 02:48:20;;;;;;;86.82;41.28;;;6.60;84.70;;;4.60;98.98;96347.19;4967182;28;20126;-69
2021/11/16 02:50:53;;;;;;;86.43;43.20;;;6.60;84.70;;;4.59;99.56;96345.56;4968026;28;20039;-69
2021/11/16 02:53:18;;;;;;;85.70;42.83;;;6.60;84.70;;;4.59;100.00;96355.97;4968407;28;20134;-69
2021/11/16 02:55:44;;;;;;;89.95;44.60;;;6.60;84.80;;;4.57;100.00;96360.50;4973095;28;20122;-70
2021/11/16 02:58:11;;;;;;;91.60;45.55;;;6.60;84.80;;;4.54;99.95;96351.19;4972885;23;20082;-67
2021/11/16 03:00:38;;;;;;;87.85;45.38;;;6.60;85.10;;;4.54;100.00;96363.41;4957681;28;20505;-67
2021/11/16 03:03:04;;;;;;;87.22;44.30;;;6.60;85.00;;;4.54;99.47;96358.19;4952742;28;20485;-67
2021/11/16 03:05:35;;;;;;;90.40;42.80;;;6.50;85.20;;;4.54;100.00;96353.00;4962268;28;20039;-67
2021/11/16 03:08:14;;;;;;;87.55;41.22;;;6.60;85.10;;;4.54;99.75;96363.41;4959225;28;20126;-67
2021/11/16 03:10:39;;;;;;;84.60;45.03;;;6.60;85.20;;;4.54;100.00;96364.22;4935178;28;20076;-68
2021/11/16 03:13:05;;;;;;;81.60;38.85;;;6.60;85.20;;;4.55;99.95;96367.66;4937246;29;20036;-66
2021/11/16 03:15:31;;;;;;;84.45;41.22;;;6.60;85.00;;;4.53;100.00;96366.97;4950999;28;20528;-67
2021/11/16 03:17:59;;;;;;;83.65;43.85;;;6.60;84.90;;;4.53;100.00;96361.78;4973098;28;20144;-66
2021/11/16 03:20:25;;;;;;;81.60;38.33;;;6.60;85.20;;;4.53;100.00;96374.78;4951676;28;20042;-67
2021/11/16 03:22:56;;;;;;;81.55;40.92;;;6.50;85.50;;;4.52;100.00;96360.09;4951359;28;20041;-67
2021/11/16 03:25:26;;;;;;;86.55;42.28;;;6.50;85.50;;;4.51;100.00;96361.06;4948496;28;20117;-67
2021/11/16 03:27:59;;;;;;;84.72;40.15;;;6.50;85.70;;;4.53;100.00;96367.78;4955801;28;20093;-66
2021/11/16 03:30:25;;;;;;;78.05;39.83;;;6.60;85.50;;;4.54;100.00;96368.63;4955508;28;20611;-66
2021/11/16 03:32:51;;;;;;;84.03;39.72;;;6.60;85.40;;;4.52;100.00;96360.09;4953827;28;20525;-67
2021/11/16 03:35:17;;;;;;;75.75;37.65;;;6.60;85.30;;;4.51;100.00;96358.47;4938603;28;20037;-67
2021/11/16 03:37:47;;;;;;;76.32;39.70;;;6.60;85.40;;;4.52;100.00;96365.31;4955070;28;20110;-68
2021/11/16 03:40:14;;;;;;;74.90;37.83;;;6.60;85.40;;;4.54;100.00;96366.00;4955990;28;20093;-67
2021/11/16 03:42:47;;;;;;;79.75;41.20;;;6.60;85.40;;;4.55;100.00;96360.66;4935424;28;20557;-67
2021/11/16 03:45:13;;;;;;;74.35;35.85;;;6.60;85.30;;;4.56;100.00;96364.06;4932848;29;20073;-67
2021/11/16 03:47:39;;;;;;;73.82;36.65;;;6.60;85.60;;;4.53;100.00;96361.78;4930299;28;20564;-67
2021/11/16 03:50:10;;;;;;;67.82;35.90;;;6.50;85.40;;;4.52;100.00;96360.09;4971392;28;20050;-67
2021/11/16 03:52:40;;;;;;;65.38;33.75;;;6.50;85.60;;;4.53;100.00;96366.97;4969728;28;20581;-67
2021/11/16 03:55:06;;;;;;;68.25;35.90;;;6.40;85.70;;;4.53;100.00;96372.19;4951597;28;20064;-67
2021/11/16 03:57:32;;;;;;;65.45;33.78;;;6.50;85.90;;;4.53;100.00;96361.78;4954473;28;20039;-68
2021/11/16 03:59:58;;;;;;;66.00;33.38;;;6.40;86.10;;;4.51;100.00;96363.66;4970737;28;20061;-67
2021/11/16 04:02:24;;;;;;;64.93;34.30;;;6.40;85.90;;;4.50;100.00;96373.28;4969721;28;20506;-67
2021/11/16 04:04:54;;;;;;;67.10;33.88;;;6.50;85.90;;;4.52;100.00;96370.50;4969762;28;20035;-68
2021/11/16 04:07:20;;;;;;;67.07;33.10;;;6.50;85.80;;;4.50;100.00;96372.44;4968495;28;20126;-68
2021/11/16 04:09:46;;;;;;;66.88;36.40;;;6.50;85.80;;;4.49;100.00;96376.84;4982451;28;20457;-67
2021/11/16 04:12:12;;;;;;;67.53;33.45;;;6.50;85.60;;;4.51;100.00;96371.47;4970282;28;20048;-66
2021/11/16 04:14:38;;;;;;;72.32;34.63;;;6.50;85.40;;;4.49;100.00;96368.22;4966327;28;20050;-67
2021/11/16 04:17:04;;;;;;;68.10;33.63;;;6.50;85.70;;;4.49;100.00;96363.00;4937288;28;20501;-67
2021/11/16 04:19:30;;;;;;;70.95;34.97;;;6.50;85.50;;;4.47;100.00;96365.75;4970468;28;20039;-67
2021/11/16 04:21:56;;;;;;;65.25;32.92;;;6.50;85.80;;;4.48;100.00;96369.16;4954785;28;20544;-67
2021/11/16 04:24:22;;;;;;;61.70;34.15;;;6.50;85.70;;;4.49;100.00;96366.41;4970525;28;20031;-67
2021/11/16 04:26:48;;;;;;;66.75;33.83;;;6.60;85.50;;;4.47;100.00;96363.16;4953557;28;20050;-68
2021/11/16 04:29:16;;;;;;;73.72;35.33;;;6.50;85.50;;;4.49;100.00;96369.03;4953296;28;20058;-69
2021/11/16 04:31:42;;;;;;;65.32;33.58;;;6.60;85.50;;;4.51;100.00;96363.66;4957165;28;20157;-68
2021/11/16 04:34:08;;;;;;;66.13;33.35;;;6.60;85.30;;;4.51;100.00;96359.28;4952739;28;20579;-68
2021/11/16 04:36:36;;;;;;;67.93;35.15;;;6.60;85.30;;;4.51;100.00;96364.50;4940042;28;20170;-67
2021/11/16 04:39:06;;;;;;;61.30;33.63;;;6.60;85.30;;;4.52;100.00;96365.31;4968294;28;20045;-68
2021/11/16 04:41:33;;;;;;;65.38;32.15;;;6.60;85.20;;;4.53;100.00;96372.19;4953864;28;20046;-68
2021/11/16 04:44:01;;;;;;;65.55;32.40;;;6.60;85.30;;;4.51;100.00;96366.28;4969498;28;20041;-66
2021/11/16 04:46:27;;;;;;;64.40;32.40;;;6.60;85.30;;;4.50;100.00;96362.84;4964920;28;21565;-68
2021/11/16 04:51:48;;;;;;;62.17;32.40;;;6.60;85.20;;;4.54;100.00;96381.63;4989172;28;20039;-67
2021/11/16 04:54:30;;;;;;;61.58;32.22;;;6.60;85.30;;;4.53;100.00;96369.59;4958974;28;20055;-68
2021/11/16 04:59:50;;;;;;;63.70;32.53;;;6.60;85.40;;;4.54;100.00;96373.81;4937534;28;20528;-67
2021/11/16 05:02:37;;;;;;;72.05;36.42;;;6.60;85.40;;;4.53;100.00;96372.19;4935374;28;20502;-67
2021/11/16 05:05:21;;;;;;;65.38;32.58;;;6.60;85.40;;;4.53;100.00;96374.78;4939377;28;20058;-67
2021/11/16 05:08:01;;;;;;;63.80;31.77;;;6.60;85.50;;;4.52;100.00;96363.53;4935726;28;20087;-68
2021/11/16 05:10:27;;;;;;;55.53;30.90;;;6.60;85.30;;;4.50;100.00;96367.25;4924625;28;20031;-66
2021/11/16 05:12:55;;;;;;;60.83;32.20;;;6.50;85.60;;;4.50;100.00;96362.03;4958918;28;20081;-67
2021/11/16 05:15:21;;;;;;;57.97;30.00;;;6.50;85.60;;;4.48;100.00;96369.16;4966683;28;20130;-66
2021/11/16 05:17:48;;;;;;;62.03;31.70;;;6.50;85.70;;;4.50;100.00;96367.25;4978956;28;20102;-66
2021/11/16 05:20:15;;;;;;;60.67;33.70;;;6.60;85.70;;;4.50;100.00;96367.25;4935741;28;20034;-67
2021/11/16 05:22:46;;;;;;;62.50;32.53;;;6.60;85.60;;;4.50;100.00;96375.88;4933943;28;20426;-67
2021/11/16 05:25:12;;;;;;;69.50;43.13;;;6.50;85.70;;;4.51;100.00;96379.28;4954145;28;20117;-67
2021/11/16 05:27:38;;;;;;;58.28;30.38;;;6.60;85.70;;;4.51;100.00;96379.28;4953422;28;20050;-67
2021/11/16 05:30:07;;;;;;;73.32;41.83;;;6.50;85.60;;;4.51;100.00;96366.28;4937126;28;20039;-67
2021/11/16 05:32:33;;;;;;;63.50;35.05;;;6.60;85.70;;;4.53;100.00;96382.59;4920797;28;20031;-68
2021/11/16 05:34:59;;;;;;;59.50;32.22;;;6.60;85.60;;;4.53;100.00;96378.22;4977753;28;20030;-68
2021/11/16 05:37:25;;;;;;;59.72;29.38;;;6.60;85.40;;;4.52;100.00;96381.75;4949502;28;20114;-68
2021/11/16 05:39:51;;;;;;;54.95;30.98;;;6.60;85.30;;;4.52;100.00;96375.72;4964684;28;20154;-67
2021/11/16 05:42:21;;;;;;;57.05;28.40;;;6.60;85.30;;;4.54;100.00;96385.06;4936611;28;20564;-70
2021/11/16 05:44:49;;;;;;;56.38;28.17;;;6.60;85.20;;;4.56;100.00;96390.13;4952251;28;20118;-69
2021/11/16 05:47:15;;;;;;;54.22;29.08;;;6.60;85.20;;;4.56;100.00;96390.13;4984476;28;20035;-68
2021/11/16 05:49:41;;;;;;;54.65;28.23;;;6.60;85.30;;;4.58;100.00;96385.59;4967876;28;20082;-70
2021/11/16 05:52:07;;;;;;;57.50;28.45;;;6.70;85.10;;;4.58;100.00;96388.19;4921217;28;20079;-67
2021/11/16 05:54:34;;;;;;;56.15;31.40;;;6.60;85.10;;;4.57;100.00;96383.94;4935585;28;20050;-66
2021/11/16 05:57:06;;;;;;;54.10;28.33;;;6.70;85.20;;;4.58;100.00;96386.41;4952457;28;20035;-68
2021/11/16 05:59:35;;;;;;;54.25;28.77;;;6.60;85.50;;;4.57;100.00;96378.75;4983752;28;20066;-67
2021/11/16 06:02:03;;;;;;;59.25;29.40;;;6.60;85.50;;;4.58;100.00;96381.19;4950658;28;20053;-68
2021/11/16 06:04:29;;;;;;;78.10;46.15;;;6.60;85.70;;;4.58;100.00;96375.16;4959413;28;20099;-70
2021/11/16 06:06:55;;;;;;;73.85;40.97;;;6.60;85.70;;;4.59;100.00;96382.03;4951237;28;20513;-70
2021/11/16 06:09:20;;;;;;;77.75;49.58;;;6.60;85.20;;;4.62;100.00;96389.53;4961076;28;20035;-66
2021/11/16 06:11:46;;;;;;;69.97;38.30;;;6.70;85.50;;;4.62;100.00;96392.16;4952036;28;20114;-65
2021/11/16 06:14:12;;;;;;;57.90;31.13;;;6.70;85.20;;;4.61;100.00;96391.31;4983836;28;20050;-65
2021/11/16 06:16:38;;;;;;;55.15;31.65;;;6.70;85.10;;;4.61;100.00;96390.50;4984106;28;20527;-66
2021/11/16 06:19:05;;;;;;;68.43;37.92;;;6.70;85.10;;;4.61;100.00;96382.69;4951909;28;20031;-65
2021/11/16 06:21:31;;;;;;;56.47;30.70;;;6.70;84.90;;;4.62;100.00;96386.94;4959595;28;20037;-66
2021/11/16 06:23:57;;;;;;;65.47;41.95;;;6.70;85.20;;;4.62;100.00;96386.94;4967696;28;20039;-66
2021/11/16 06:26:24;;;;;;;57.70;31.30;;;6.70;85.00;;;4.61;100.00;96380.09;4934378;28;20038;-66
2021/11/16 06:28:50;;;;;;;56.65;30.75;;;6.70;85.20;;;4.62;100.00;96381.72;4950350;28;20062;-66
2021/11/16 06:31:20;;;;;;;60.03;30.77;;;6.70;85.20;;;4.63;100.00;96378.16;4966909;28;20045;-66
2021/11/16 06:33:47;;;;;;;48.20;27.85;;;6.80;85.20;;;4.64;100.00;96379.78;4935734;28;20042;-66
2021/11/16 06:36:12;;;;;;;50.58;28.63;;;6.70;85.10;;;4.64;100.00;96385.00;4950980;28;20054;-67
2021/11/16 06:38:38;;;;;;;55.35;29.33;;;6.70;84.90;;;4.64;100.00;96395.44;4967582;28;20030;-66
2021/11/16 06:41:04;;;;;;;51.85;27.15;;;6.70;84.90;;;4.64;100.00;96392.81;4952249;28;20054;-64
2021/11/16 06:43:32;;;;;;;49.85;29.98;;;6.70;84.70;;;4.66;100.00;96396.09;4968021;28;20062;-66
2021/11/16 06:46:01;;;;;;;52.55;27.35;;;6.70;84.80;;;4.68;100.00;96395.94;4952436;28;20069;-65
2021/11/16 06:48:27;;;;;;;49.20;28.00;;;6.70;84.80;;;4.65;100.00;96391.84;4951682;28;20027;-67
2021/11/16 06:50:53;;;;;;;49.60;26.35;;;6.80;84.70;;;4.67;100.00;96392.53;4952012;28;20062;-66
2021/11/16 06:53:34;;;;;;;48.08;26.60;;;6.70;84.90;;;4.67;100.00;96384.72;4952053;28;20042;-66
2021/11/16 06:56:00;;;;;;;50.70;27.88;;;6.80;85.10;;;4.68;100.00;96381.13;4937612;28;20120;-66
2021/11/16 06:58:27;;;;;;;54.35;27.77;;;6.80;85.10;;;4.69;100.00;96382.78;4936035;28;20520;-68
2021/11/16 07:00:53;;;;;;;50.60;29.85;;;6.80;85.20;;;4.71;100.00;96393.88;4932701;28;20406;-67
2021/11/16 07:03:23;;;;;;;50.20;28.10;;;6.80;85.30;;;4.74;100.00;96393.56;4979627;28;20122;-67
2021/11/16 07:05:52;;;;;;;50.03;28.15;;;6.80;85.10;;;4.73;100.00;96394.53;4992575;28;20042;-68
2021/11/16 07:08:36;;;;;;;48.50;26.83;;;6.90;85.20;;;4.75;100.00;96397.84;4939914;28;20042;-67
2021/11/16 07:11:17;;;;;;;50.10;28.85;;;6.80;85.00;;;4.76;100.00;96399.50;4968901;28;20035;-67
2021/11/16 07:14:14;;;;;;;49.35;26.23;;;6.90;85.00;;;4.78;100.00;96407.97;4970865;28;20038;-72
2021/11/16 07:16:52;;;;;;;50.55;27.60;;;6.90;85.40;;;4.81;100.00;96410.28;4966130;28;20043;-66
2021/11/16 07:19:18;;;;;;;47.90;26.80;;;7.00;85.80;;;4.84;100.00;96412.59;4963276;28;20069;-69
2021/11/16 07:21:50;;;;;;;50.85;26.90;;;6.90;84.70;;;4.84;100.00;96410.00;4971659;28;20549;-68
2021/11/16 07:24:20;;;;;;;47.88;27.27;;;7.00;84.80;;;4.86;100.00;96415.88;4954797;28;20191;-69
2021/11/16 07:27:04;;;;;;;47.60;26.20;;;6.90;84.40;;;4.84;100.00;96412.59;4965693;28;20093;-69
2021/11/16 07:29:38;;;;;;;47.33;25.45;;;7.00;84.40;;;4.87;100.00;96416.69;4927565;28;20101;-65
2021/11/16 07:32:06;;;;;;;46.80;25.85;;;7.00;84.30;;;4.88;100.00;96421.75;4985843;28;20110;-68
2021/11/16 07:34:34;;;;;;;46.22;28.17;;;7.00;84.30;;;4.88;100.00;96418.34;4964299;28;20105;-65
2021/11/16 07:37:06;;;;;;;49.10;25.75;;;7.00;84.40;;;4.88;100.00;96424.38;4920973;28;20094;-69
2021/11/16 07:39:55;;;;;;;47.88;25.63;;;7.00;84.40;;;4.88;100.00;96424.38;4955837;28;20046;-67
2021/11/16 07:42:27;;;;;;;51.13;25.75;;;7.00;84.10;;;4.88;100.00;96424.38;4957077;28;20533;-66
2021/11/16 07:45:04;;;;;;;57.17;35.67;;;6.90;84.40;;;4.90;100.00;96422.44;4934390;28;20035;-69
2021/11/16 07:47:47;;;;;;;50.42;26.88;;;7.00;84.70;;;4.90;100.00;96427.66;4969153;28;20054;-67
2021/11/16 07:50:28;;;;;;;46.90;28.27;;;7.00;84.50;;;4.89;100.00;96418.19;4955721;28;20039;-67
2021/11/16 07:52:54;;;;;;;45.42;25.15;;;6.90;84.60;;;4.88;100.00;96426.97;4977563;28;20062;-68
2021/11/16 07:55:24;;;;;;;46.83;25.27;;;6.90;84.40;;;4.86;100.00;96434.13;4969498;28;20094;-67
2021/11/16 07:57:51;;;;;;;48.17;28.42;;;6.90;84.70;;;4.87;100.00;96429.72;4984468;28;20039;-67
2021/11/16 08:00:22;;;;;;;49.90;25.60;;;6.90;84.80;;;4.89;100.00;96426.00;4971193;28;20128;-67
2021/11/16 08:02:52;;;;;;;44.08;25.90;;;7.00;84.80;;;4.89;100.00;96428.63;4946328;28;20122;-67
2021/11/16 08:05:38;;;;;;;46.90;25.42;;;6.90;84.50;;;4.89;100.00;96423.41;4956096;28;20050;-68
2021/11/16 08:10:48;;;;;;;40.22;23.45;;;7.00;84.80;;;4.89;100.00;96431.22;4954616;28;20062;-69
2021/11/16 08:13:26;;;;;;;44.03;24.80;;;7.00;84.70;;;4.92;99.99;96430.94;4970122;28;20042;-67
2021/11/16 08:15:51;;;;;;;42.22;23.60;;;7.10;84.60;;;4.95;100.00;96434.22;4937458;28;20055;-67
2021/11/16 08:18:17;;;;;;;36.78;21.15;;;7.00;84.40;;;4.96;100.00;96441.06;4967510;28;20070;-66
2021/11/16 08:20:43;;;;;;;36.35;20.88;;;7.10;83.90;;;4.97;99.90;96438.31;4962861;28;20469;-69
2021/11/16 08:23:09;;;;;;;37.03;21.60;;;7.10;83.70;;;4.97;99.61;96442.69;4930040;28;20101;-70
2021/11/16 08:25:37;;;;;;;33.97;19.55;;;7.00;83.80;;;4.97;100.00;96442.69;4968689;28;20122;-68
2021/11/16 08:28:04;;;;;;;32.13;19.10;;;6.90;83.80;;;4.90;99.39;96432.88;4938124;28;20039;-68
2021/11/16 08:30:34;;;;;;;34.63;19.85;;;6.80;84.30;;;4.86;99.99;96436.72;4942665;28;20034;-68
2021/11/16 08:33:01;;;;;;;29.75;18.02;;;6.70;84.90;;;4.85;99.85;96440.31;4969896;28;20157;-67
2021/11/16 08:35:27;;;;;;;33.22;18.92;;;6.70;84.60;;;4.82;100.00;96440.59;4958785;28;20038;-69
2021/11/16 08:38:02;;;;;;;29.08;18.08;;;6.70;84.60;;;4.80;99.52;96428.69;4938121;28;20687;-66
2021/11/16 08:40:33;;;;;;;34.00;19.25;;;6.70;84.70;;;4.79;100.00;96429.66;4969239;28;20088;-69
2021/11/16 08:43:12;;;;;;;29.20;16.98;;;6.80;84.90;;;4.78;100.00;96433.22;4968002;28;20430;-67
2021/11/16 08:45:40;;;;;;;30.35;17.67;;;6.70;84.90;;;4.73;99.77;96438.84;4981168;28;20407;-68
2021/11/16 08:48:11;;;;;;;32.65;17.38;;;6.50;85.20;;;4.69;100.00;96440.09;4969773;28;20173;-68
2021/11/16 08:50:42;;;;;;;26.05;15.35;;;6.50;85.60;;;4.64;99.88;96444.09;4969503;28;20035;-69
2021/11/16 08:53:30;;;;;;;25.58;16.02;;;6.40;85.60;;;4.59;99.85;96445.38;4964387;28;20039;-70
2021/11/16 08:55:56;;;;;;;26.75;15.23;;;6.40;85.50;;;4.55;100.00;96438.81;4985905;28;20042;-69
2021/11/16 08:58:25;;;;;;;26.15;14.40;;;6.40;85.10;;;4.55;99.58;96449.22;4936957;28;20035;-69
2021/11/16 09:01:04;;;;;;;23.50;14.30;;;6.40;85.30;;;4.54;99.60;96446.75;4921500;28;20054;-66
2021/11/16 09:03:44;;;;;;;21.42;13.95;;;6.30;85.00;;;4.55;100.00;96451.00;4969185;28;20038;-64
2021/11/16 09:06:19;;;;;;;22.67;12.97;;;6.40;85.20;;;4.51;99.81;96447.03;4984717;28;20031;-69
2021/11/16 09:08:46;;;;;;;28.17;15.35;;;6.40;85.50;;;4.52;99.59;96453.88;4949339;28;20142;-66
2021/11/16 09:11:15;;;;;;;23.33;14.07;;;6.40;85.50;;;4.48;99.98;96452.53;4952009;28;20409;-64
2021/11/16 09:13:41;;;;;;;22.30;13.88;;;6.30;85.50;;;4.48;100.00;96452.53;4970829;28;20038;-65
2021/11/16 09:16:19;;;;;;;24.48;15.73;;;6.40;85.70;;;4.52;100.00;96456.47;4968907;28;20106;-67
2021/11/16 09:18:49;;;;;;;27.17;15.15;;;6.50;85.60;;;4.50;100.00;96453.19;4961285;28;20030;-65
2021/11/16 09:21:17;;;;;;;31.20;14.63;;;6.40;85.60;;;4.51;100.00;96453.06;4943335;28;20656;-65
2021/11/16 09:23:48;;;;;;;24.67;13.60;;;6.50;85.50;;;4.52;100.00;96451.28;4948475;28;20059;-68
2021/11/16 09:26:32;;;;;;;22.75;14.10;;;6.50;85.50;;;4.55;100.00;96453.63;4968593;28;20382;-65
2021/11/16 09:29:14;;;;;;;26.20;14.70;;;6.60;85.40;;;4.60;100.00;96451.41;4967436;28;20113;-67
2021/11/16 09:31:48;;;;;;;23.48;13.50;;;6.70;85.60;;;4.65;100.00;96451.78;4981049;28;20047;-67
2021/11/16 09:34:15;;;;;;;21.33;12.65;;;6.70;84.90;;;4.65;100.00;96454.38;4974532;28;20031;-67
2021/11/16 09:36:42;;;;;;;25.90;13.48;;;6.60;84.40;;;4.70;100.00;96454.78;4989514;28;20532;-66
2021/11/16 09:39:18;;;;;;;22.80;12.75;;;6.70;84.80;;;4.72;100.00;96444.19;4950845;28;20058;-66
2021/11/16 09:41:51;;;;;;;20.80;14.13;;;6.70;84.50;;;4.74;100.00;96444.88;4978787;28;20654;-68
2021/11/16 09:44:21;;;;;;;20.33;11.85;;;6.70;84.10;;;4.76;100.00;96448.19;4958713;28;20065;-75
2021/11/16 09:47:06;;;;;;;20.60;13.27;;;6.70;84.40;;;4.78;99.95;96454.06;4965863;28;20062;-66
2021/11/16 09:49:46;;;;;;;25.00;13.35;;;6.80;84.30;;;4.80;100.00;96445.13;4955435;28;20031;-67
2021/11/16 09:52:38;;;;;;;20.00;12.50;;;6.80;84.30;;;4.81;98.76;96449.38;4953170;28;20047;-67
2021/11/16 09:55:26;;;;;;;22.80;12.68;;;6.70;83.90;;;4.84;99.20;96443.88;4969300;28;20029;-66
2021/11/16 09:57:57;;;;;;;20.02;13.60;;;6.90;84.00;;;4.87;99.10;96446.19;4971115;28;20493;-67
2021/11/16 10:00:31;;;;;;;26.92;13.88;;;6.90;83.80;;;4.88;98.91;96450.44;4957426;28;20054;-68
2021/11/16 10:03:00;;;;;;;23.42;13.38;;;6.90;83.90;;;4.90;99.74;96448.50;4936647;28;20039;-67
2021/11/16 10:05:27;;;;;;;23.85;14.05;;;6.90;84.30;;;4.90;98.98;96447.69;4969827;28;20069;-67
2021/11/16 10:07:59;;;;;;;22.20;12.20;;;6.80;83.80;;;4.83;98.79;96447.44;4941374;28;20039;-67
2021/11/16 10:10:27;;;;;;;18.80;12.65;;;6.70;84.20;;;4.82;99.45;96451.03;4983956;28;20031;-68
2021/11/16 10:12:56;;;;;;;19.75;12.77;;;6.70;84.50;;;4.78;99.34;96444.47;4943153;28;20042;-67
2021/11/16 10:15:25;;;;;;;21.20;12.98;;;6.60;84.40;;;4.77;99.18;96452.44;4932433;28;20097;-66
2021/11/16 10:17:51;;;;;;;18.88;13.27;;;6.70;84.30;;;4.75;99.70;96446.50;4949451;28;20035;-66
2021/11/16 10:20:26;;;;;;;17.45;11.38;;;6.60;84.40;;;4.74;98.38;96450.09;4964853;28;20041;-66
2021/11/16 10:22:54;;;;;;;20.08;12.40;;;6.60;84.40;;;4.71;99.46;96443.38;4966556;28;20055;-67
2021/11/16 10:25:23;;;;;;;20.48;12.40;;;6.60;84.60;;;4.75;99.03;96444.75;4968162;28;20159;-66
2021/11/16 10:27:50;;;;;;;18.83;12.13;;;6.70;84.40;;;4.77;98.89;96453.25;4968076;28;20047;-68
2021/11/16 10:30:27;;;;;;;19.50;12.02;;;6.80;84.30;;;4.79;99.85;96447.88;4961852;28;20076;-66
2021/11/16 10:33:09;;;;;;;21.15;13.70;;;6.70;84.00;;;4.79;98.52;96456.53;4932977;28;20080;-67